sensor_id;sensor_type;location;lat;lon;timestamp;pressure;altitude;pressure_sealevel;temperature;humidity
48862;BME280;34681;49.188;-0.374;2022-11-13T00:00:50;102115.63;;;13.02;82.11
48862;BME280;34681;49.188;-0.374;2022-11-13T00:03:16;102122.81;;;12.48;84.16
48862;BME280;34681;49.188;-0.374;2022-11-13T00:05:41;102116.97;;;12.53;84.66
48862;BME280;34681;49.188;-0.374;2022-11-13T00:08:07;102112.09;;;12.68;84.51
48862;BME280;34681;49.188;-0.374;2022-11-13T00:10:32;102111.56;;;12.62;83.99
48862;BME280;34681;49.188;-0.374;2022-11-13T00:12:57;102104.13;;;12.42;84.38
48862;BME280;34681;49.188;-0.374;2022-11-13T00:15:23;102103.34;;;12.40;85.04
48862;BME280;34681;49.188;-0.374;2022-11-13T00:17:48;102103.72;;;12.69;84.12
48862;BME280;34681;49.188;-0.374;2022-11-13T00:20:13;102098.59;;;12.64;83.51
48862;BME280;34681;49.188;-0.374;2022-11-13T00:22:39;102092.63;;;12.59;84.44
48862;BME280;34681;49.188;-0.374;2022-11-13T00:25:04;102088.06;;;12.92;82.71
48862;BME280;34681;49.188;-0.374;2022-11-13T00:27:32;102077.56;;;12.86;82.48
48862;BME280;34681;49.188;-0.374;2022-11-13T00:29:57;102081.66;;;12.37;83.75
48862;BME280;34681;49.188;-0.374;2022-11-13T00:32:23;102079.03;;;12.24;84.63
48862;BME280;34681;49.188;-0.374;2022-11-13T00:34:48;102069.81;;;12.14;85.97
48862;BME280;34681;49.188;-0.374;2022-11-13T00:37:13;102071.94;;;12.22;85.16
48862;BME280;34681;49.188;-0.374;2022-11-13T00:39:39;102081.00;;;12.56;84.57
48862;BME280;34681;49.188;-0.374;2022-11-13T00:42:04;102081.38;;;13.06;82.02
48862;BME280;34681;49.188;-0.374;2022-11-13T00:44:31;102073.59;;;12.79;82.75
48862;BME280;34681;49.188;-0.374;2022-11-13T00:46:56;102082.84;;;12.78;82.46
48862;BME280;34681;49.188;-0.374;2022-11-13T00:49:21;102077.50;;;12.65;83.41
48862;BME280;34681;49.188;-0.374;2022-11-13T00:51:47;102072.00;;;13.19;80.66
48862;BME280;34681;49.188;-0.374;2022-11-13T00:54:12;102064.22;;;13.45;79.01
48862;BME280;34681;49.188;-0.374;2022-11-13T00:56:37;102060.91;;;12.99;80.41
48862;BME280;34681;49.188;-0.374;2022-11-13T00:59:03;102063.56;;;12.89;81.35
48862;BME280;34681;49.188;-0.374;2022-11-13T01:01:28;102059.69;;;12.59;82.38
48862;BME280;34681;49.188;-0.374;2022-11-13T01:03:54;102058.44;;;12.52;83.35
48862;BME280;34681;49.188;-0.374;2022-11-13T01:06:24;102049.75;;;12.79;81.75
48862;BME280;34681;49.188;-0.374;2022-11-13T01:08:54;102047.28;;;12.76;81.88
48862;BME280;34681;49.188;-0.374;2022-11-13T01:11:23;102048.53;;;13.04;80.32
48862;BME280;34681;49.188;-0.374;2022-11-13T01:13:49;102045.88;;;13.25;79.59
48862;BME280;34681;49.188;-0.374;2022-11-13T01:16:16;102047.44;;;12.96;79.91
48862;BME280;34681;49.188;-0.374;2022-11-13T01:18:42;102043.13;;;12.82;81.17
48862;BME280;34681;49.188;-0.374;2022-11-13T01:21:09;102042.06;;;12.62;81.55
48862;BME280;34681;49.188;-0.374;2022-11-13T01:23:35;102045.00;;;12.27;82.70
48862;BME280;34681;49.188;-0.374;2022-11-13T01:28:33;102031.03;;;11.96;84.41
48862;BME280;34681;49.188;-0.374;2022-11-13T01:30:59;102033.63;;;11.75;85.75
48862;BME280;34681;49.188;-0.374;2022-11-13T01:33:24;102034.59;;;11.74;86.59
48862;BME280;34681;49.188;-0.374;2022-11-13T01:35:49;102028.38;;;11.72;86.15
48862;BME280;34681;49.188;-0.374;2022-11-13T01:38:15;102031.19;;;11.48;87.31
48862;BME280;34681;49.188;-0.374;2022-11-13T01:40:46;102031.72;;;11.42;88.23
48862;BME280;34681;49.188;-0.374;2022-11-13T01:43:36;102029.84;;;11.43;88.42
48862;BME280;34681;49.188;-0.374;2022-11-13T01:46:15;102027.59;;;11.48;88.39
48862;BME280;34681;49.188;-0.374;2022-11-13T01:48:45;102020.28;;;11.60;87.82
48862;BME280;34681;49.188;-0.374;2022-11-13T01:51:15;102021.63;;;11.65;87.16
48862;BME280;34681;49.188;-0.374;2022-11-13T01:53:44;102015.41;;;11.52;87.80
48862;BME280;34681;49.188;-0.374;2022-11-13T01:56:12;102013.75;;;11.49;87.62
48862;BME280;34681;49.188;-0.374;2022-11-13T01:58:39;102013.50;;;11.41;88.39
48862;BME280;34681;49.188;-0.374;2022-11-13T02:01:06;102016.75;;;11.35;88.37
48862;BME280;34681;49.188;-0.374;2022-11-13T02:03:31;102011.84;;;11.28;88.94
48862;BME280;34681;49.188;-0.374;2022-11-13T02:05:57;102012.22;;;11.23;88.97
48862;BME280;34681;49.188;-0.374;2022-11-13T02:08:22;102001.25;;;11.23;88.60
48862;BME280;34681;49.188;-0.374;2022-11-13T02:10:48;102007.91;;;11.43;87.60
48862;BME280;34681;49.188;-0.374;2022-11-13T02:13:14;102007.59;;;11.23;88.26
48862;BME280;34681;49.188;-0.374;2022-11-13T02:15:40;102009.13;;;11.28;88.13
48862;BME280;34681;49.188;-0.374;2022-11-13T02:18:07;102003.63;;;11.28;88.50
48862;BME280;34681;49.188;-0.374;2022-11-13T02:23:59;101999.34;;;11.01;89.29
48862;BME280;34681;49.188;-0.374;2022-11-13T02:26:26;101994.28;;;11.19;88.98
48862;BME280;34681;49.188;-0.374;2022-11-13T02:28:53;101984.81;;;11.23;88.21
48862;BME280;34681;49.188;-0.374;2022-11-13T02:31:18;101985.41;;;11.15;88.05
48862;BME280;34681;49.188;-0.374;2022-11-13T02:33:44;101981.91;;;11.02;88.96
48862;BME280;34681;49.188;-0.374;2022-11-13T02:36:09;101980.84;;;10.92;89.67
48862;BME280;34681;49.188;-0.374;2022-11-13T02:38:37;101977.63;;;10.87;90.15
48862;BME280;34681;49.188;-0.374;2022-11-13T02:41:04;101978.75;;;10.84;90.54
48862;BME280;34681;49.188;-0.374;2022-11-13T02:43:29;101974.34;;;10.82;91.36
48862;BME280;34681;49.188;-0.374;2022-11-13T02:45:55;101980.94;;;10.79;91.26
48862;BME280;34681;49.188;-0.374;2022-11-13T02:48:20;101976.06;;;10.72;91.62
48862;BME280;34681;49.188;-0.374;2022-11-13T02:50:46;101979.81;;;10.82;91.30
48862;BME280;34681;49.188;-0.374;2022-11-13T02:53:11;101970.41;;;10.86;90.91
48862;BME280;34681;49.188;-0.374;2022-11-13T02:55:36;101970.56;;;10.95;89.97
48862;BME280;34681;49.188;-0.374;2022-11-13T02:58:02;101968.66;;;10.85;90.66
48862;BME280;34681;49.188;-0.374;2022-11-13T03:00:27;101964.91;;;10.86;90.49
48862;BME280;34681;49.188;-0.374;2022-11-13T03:02:53;101957.41;;;10.77;91.15
48862;BME280;34681;49.188;-0.374;2022-11-13T03:05:20;101963.34;;;11.06;89.20
48862;BME280;34681;49.188;-0.374;2022-11-13T03:07:45;101948.97;;;10.91;89.91
48862;BME280;34681;49.188;-0.374;2022-11-13T03:10:11;101952.09;;;10.86;90.10
48862;BME280;34681;49.188;-0.374;2022-11-13T03:12:37;101945.97;;;10.83;90.52
48862;BME280;34681;49.188;-0.374;2022-11-13T03:15:04;101955.44;;;10.79;90.23
48862;BME280;34681;49.188;-0.374;2022-11-13T03:17:30;101949.41;;;10.62;91.47
48862;BME280;34681;49.188;-0.374;2022-11-13T03:19:56;101942.59;;;10.68;90.87
48862;BME280;34681;49.188;-0.374;2022-11-13T03:22:21;101941.44;;;10.59;91.69
48862;BME280;34681;49.188;-0.374;2022-11-13T03:24:46;101943.91;;;10.62;91.13
48862;BME280;34681;49.188;-0.374;2022-11-13T03:27:12;101942.38;;;10.58;91.71
48862;BME280;34681;49.188;-0.374;2022-11-13T03:29:37;101938.72;;;10.71;90.58
48862;BME280;34681;49.188;-0.374;2022-11-13T03:32:03;101945.81;;;10.73;90.68
48862;BME280;34681;49.188;-0.374;2022-11-13T03:34:28;101933.66;;;10.77;89.52
48862;BME280;34681;49.188;-0.374;2022-11-13T03:36:53;101937.69;;;10.95;89.79
48862;BME280;34681;49.188;-0.374;2022-11-13T03:39:19;101930.22;;;11.09;88.59
48862;BME280;34681;49.188;-0.374;2022-11-13T03:41:44;101936.28;;;11.36;87.71
48862;BME280;34681;49.188;-0.374;2022-11-13T03:44:10;101933.53;;;11.36;85.50
48862;BME280;34681;49.188;-0.374;2022-11-13T03:46:35;101938.63;;;11.30;86.92
48862;BME280;34681;49.188;-0.374;2022-11-13T03:49:00;101935.16;;;11.72;85.05
48862;BME280;34681;49.188;-0.374;2022-11-13T03:51:26;101931.75;;;12.14;82.79
48862;BME280;34681;49.188;-0.374;2022-11-13T03:53:51;101931.38;;;12.18;82.25
48862;BME280;34681;49.188;-0.374;2022-11-13T03:56:16;101938.56;;;12.42;81.06
48862;BME280;34681;49.188;-0.374;2022-11-13T03:58:42;101934.50;;;12.25;81.66
48862;BME280;34681;49.188;-0.374;2022-11-13T04:01:07;101928.81;;;11.94;82.43
48862;BME280;34681;49.188;-0.374;2022-11-13T04:03:33;101932.28;;;11.63;82.69
48862;BME280;34681;49.188;-0.374;2022-11-13T04:05:58;101920.81;;;11.46;84.84
48862;BME280;34681;49.188;-0.374;2022-11-13T04:08:23;101922.44;;;11.27;84.92
48862;BME280;34681;49.188;-0.374;2022-11-13T04:10:49;101927.66;;;11.41;84.99
48862;BME280;34681;49.188;-0.374;2022-11-13T04:13:14;101915.56;;;11.10;85.84
48862;BME280;34681;49.188;-0.374;2022-11-13T04:15:39;101905.94;;;10.93;86.62
48862;BME280;34681;49.188;-0.374;2022-11-13T04:18:05;101916.94;;;11.15;86.75
48862;BME280;34681;49.188;-0.374;2022-11-13T04:20:30;101915.44;;;11.11;86.12
48862;BME280;34681;49.188;-0.374;2022-11-13T04:22:56;101924.56;;;11.34;85.26
48862;BME280;34681;49.188;-0.374;2022-11-13T04:25:22;101927.28;;;11.23;86.18
48862;BME280;34681;49.188;-0.374;2022-11-13T04:27:49;101926.06;;;11.27;85.02
48862;BME280;34681;49.188;-0.374;2022-11-13T04:30:14;101924.00;;;11.07;86.04
48862;BME280;34681;49.188;-0.374;2022-11-13T04:32:40;101924.31;;;10.80;87.08
48862;BME280;34681;49.188;-0.374;2022-11-13T04:35:06;101921.84;;;10.88;86.67
48862;BME280;34681;49.188;-0.374;2022-11-13T04:37:31;101920.44;;;10.71;87.42
48862;BME280;34681;49.188;-0.374;2022-11-13T04:39:56;101923.69;;;10.76;87.96
48862;BME280;34681;49.188;-0.374;2022-11-13T04:42:22;101919.88;;;10.55;88.67
48862;BME280;34681;49.188;-0.374;2022-11-13T04:45:06;101925.69;;;10.50;89.21
48862;BME280;34681;49.188;-0.374;2022-11-13T04:47:31;101921.59;;;10.45;89.28
48862;BME280;34681;49.188;-0.374;2022-11-13T04:49:57;101918.50;;;10.84;88.20
48862;BME280;34681;49.188;-0.374;2022-11-13T04:52:22;101906.69;;;11.06;85.15
48862;BME280;34681;49.188;-0.374;2022-11-13T04:54:47;101898.34;;;10.85;86.82
48862;BME280;34681;49.188;-0.374;2022-11-13T04:57:13;101896.06;;;10.68;86.07
48862;BME280;34681;49.188;-0.374;2022-11-13T04:59:38;101890.97;;;10.51;87.47
48862;BME280;34681;49.188;-0.374;2022-11-13T05:02:03;101893.66;;;10.63;87.38
48862;BME280;34681;49.188;-0.374;2022-11-13T05:04:29;101888.53;;;10.59;87.77
48862;BME280;34681;49.188;-0.374;2022-11-13T05:06:54;101884.84;;;10.71;87.46
48862;BME280;34681;49.188;-0.374;2022-11-13T05:09:19;101874.69;;;11.07;86.05
48862;BME280;34681;49.188;-0.374;2022-11-13T05:11:45;101881.69;;;11.56;82.97
48862;BME280;34681;49.188;-0.374;2022-11-13T05:14:11;101873.59;;;11.54;83.07
48862;BME280;34681;49.188;-0.374;2022-11-13T05:16:37;101873.09;;;11.60;83.00
48862;BME280;34681;49.188;-0.374;2022-11-13T05:19:03;101867.50;;;11.62;82.47
48862;BME280;34681;49.188;-0.374;2022-11-13T05:21:36;101873.72;;;11.08;84.18
48862;BME280;34681;49.188;-0.374;2022-11-13T05:24:02;101862.03;;;11.39;83.68
48862;BME280;34681;49.188;-0.374;2022-11-13T05:26:28;101863.41;;;11.11;84.14
48862;BME280;34681;49.188;-0.374;2022-11-13T05:28:57;101855.91;;;11.24;84.41
48862;BME280;34681;49.188;-0.374;2022-11-13T05:31:24;101852.69;;;11.19;83.93
48862;BME280;34681;49.188;-0.374;2022-11-13T05:33:49;101846.44;;;10.95;85.38
48862;BME280;34681;49.188;-0.374;2022-11-13T05:36:16;101848.69;;;11.01;84.92
48862;BME280;34681;49.188;-0.374;2022-11-13T05:38:42;101844.59;;;11.51;83.34
48862;BME280;34681;49.188;-0.374;2022-11-13T05:41:13;101846.94;;;11.22;83.27
48862;BME280;34681;49.188;-0.374;2022-11-13T05:43:39;101842.44;;;10.88;85.34
48862;BME280;34681;49.188;-0.374;2022-11-13T05:46:34;101836.50;;;11.05;83.75
48862;BME280;34681;49.188;-0.374;2022-11-13T05:49:01;101830.44;;;10.55;86.20
48862;BME280;34681;49.188;-0.374;2022-11-13T05:51:29;101823.47;;;10.51;86.70
48862;BME280;34681;49.188;-0.374;2022-11-13T05:53:55;101820.81;;;10.38;87.25
48862;BME280;34681;49.188;-0.374;2022-11-13T05:56:22;101821.81;;;10.37;87.16
48862;BME280;34681;49.188;-0.374;2022-11-13T05:58:48;101821.88;;;10.71;86.72
48862;BME280;34681;49.188;-0.374;2022-11-13T06:03:40;101822.81;;;10.36;88.08
48862;BME280;34681;49.188;-0.374;2022-11-13T06:06:07;101810.84;;;10.26;88.28
48862;BME280;34681;49.188;-0.374;2022-11-13T06:08:33;101807.81;;;9.94;89.43
48862;BME280;34681;49.188;-0.374;2022-11-13T06:11:00;101809.41;;;9.97;90.36
48862;BME280;34681;49.188;-0.374;2022-11-13T06:13:26;101803.66;;;10.12;89.98
48862;BME280;34681;49.188;-0.374;2022-11-13T06:15:52;101794.38;;;10.84;86.94
48862;BME280;34681;49.188;-0.374;2022-11-13T06:18:21;101796.00;;;11.31;84.27
48862;BME280;34681;49.188;-0.374;2022-11-13T06:20:47;101792.13;;;11.56;82.88
48862;BME280;34681;49.188;-0.374;2022-11-13T06:23:12;101785.31;;;11.17;83.12
48862;BME280;34681;49.188;-0.374;2022-11-13T06:25:38;101778.44;;;10.66;85.36
48862;BME280;34681;49.188;-0.374;2022-11-13T06:28:03;101782.81;;;10.91;84.44
48862;BME280;34681;49.188;-0.374;2022-11-13T06:30:29;101772.88;;;10.79;84.46
48862;BME280;34681;49.188;-0.374;2022-11-13T06:32:54;101763.22;;;10.40;86.11
48862;BME280;34681;49.188;-0.374;2022-11-13T06:35:20;101768.81;;;10.38;86.80
48862;BME280;34681;49.188;-0.374;2022-11-13T06:37:46;101765.38;;;10.12;87.56
48862;BME280;34681;49.188;-0.374;2022-11-13T06:40:12;101762.59;;;10.01;88.51
48862;BME280;34681;49.188;-0.374;2022-11-13T06:42:37;101764.97;;;10.17;89.08
48862;BME280;34681;49.188;-0.374;2022-11-13T06:45:03;101767.09;;;10.49;87.54
48862;BME280;34681;49.188;-0.374;2022-11-13T06:47:29;101775.44;;;10.58;86.50
48862;BME280;34681;49.188;-0.374;2022-11-13T06:49:54;101774.50;;;10.24;86.96
48862;BME280;34681;49.188;-0.374;2022-11-13T06:52:20;101774.28;;;10.03;88.36
48862;BME280;34681;49.188;-0.374;2022-11-13T06:54:45;101773.72;;;9.87;89.56
48862;BME280;34681;49.188;-0.374;2022-11-13T06:57:11;101767.72;;;9.82;89.73
48862;BME280;34681;49.188;-0.374;2022-11-13T06:59:36;101770.81;;;9.77;90.54
48862;BME280;34681;49.188;-0.374;2022-11-13T07:02:02;101774.34;;;9.91;89.93
48862;BME280;34681;49.188;-0.374;2022-11-13T07:04:27;101777.03;;;9.79;90.50
48862;BME280;34681;49.188;-0.374;2022-11-13T07:06:53;101768.06;;;10.01;89.22
48862;BME280;34681;49.188;-0.374;2022-11-13T07:09:18;101766.47;;;10.10;89.02
48862;BME280;34681;49.188;-0.374;2022-11-13T07:11:43;101757.44;;;10.21;87.94
48862;BME280;34681;49.188;-0.374;2022-11-13T07:14:12;101747.06;;;10.48;87.11
48862;BME280;34681;49.188;-0.374;2022-11-13T07:16:37;101750.75;;;10.25;86.46
48862;BME280;34681;49.188;-0.374;2022-11-13T07:19:03;101746.63;;;10.19;86.86
48862;BME280;34681;49.188;-0.374;2022-11-13T07:21:29;101742.22;;;10.17;87.81
48862;BME280;34681;49.188;-0.374;2022-11-13T07:23:54;101738.25;;;10.09;87.89
48862;BME280;34681;49.188;-0.374;2022-11-13T07:26:20;101743.88;;;10.19;88.93
48862;BME280;34681;49.188;-0.374;2022-11-13T07:28:46;101753.78;;;10.09;87.76
48862;BME280;34681;49.188;-0.374;2022-11-13T07:31:13;101745.94;;;10.28;87.74
48862;BME280;34681;49.188;-0.374;2022-11-13T07:33:39;101750.41;;;10.05;87.35
48862;BME280;34681;49.188;-0.374;2022-11-13T07:36:05;101743.59;;;10.11;87.49
48862;BME280;34681;49.188;-0.374;2022-11-13T07:38:31;101749.66;;;10.27;87.52
48862;BME280;34681;49.188;-0.374;2022-11-13T07:40:57;101750.47;;;10.52;85.88
48862;BME280;34681;49.188;-0.374;2022-11-13T07:43:23;101752.19;;;10.75;85.14
48862;BME280;34681;49.188;-0.374;2022-11-13T07:45:49;101749.34;;;11.10;83.80
48862;BME280;34681;49.188;-0.374;2022-11-13T07:48:19;101739.03;;;11.03;83.33
48862;BME280;34681;49.188;-0.374;2022-11-13T07:50:45;101741.66;;;10.93;83.13
48862;BME280;34681;49.188;-0.374;2022-11-13T07:53:10;101733.53;;;10.91;83.71
48862;BME280;34681;49.188;-0.374;2022-11-13T07:55:36;101738.97;;;11.25;83.24
48862;BME280;34681;49.188;-0.374;2022-11-13T07:58:03;101725.97;;;10.95;82.71
48862;BME280;34681;49.188;-0.374;2022-11-13T08:00:30;101733.16;;;11.07;82.91
48862;BME280;34681;49.188;-0.374;2022-11-13T08:02:57;101729.94;;;11.02;83.23
48862;BME280;34681;49.188;-0.374;2022-11-13T08:05:23;101738.25;;;11.34;82.58
48862;BME280;34681;49.188;-0.374;2022-11-13T08:07:50;101730.28;;;11.09;82.93
48862;BME280;34681;49.188;-0.374;2022-11-13T08:10:17;101748.66;;;11.40;81.97
48862;BME280;34681;49.188;-0.374;2022-11-13T08:12:44;101749.31;;;11.33;82.41
48862;BME280;34681;49.188;-0.374;2022-11-13T08:15:10;101750.81;;;11.37;82.31
48862;BME280;34681;49.188;-0.374;2022-11-13T08:17:36;101746.22;;;11.69;81.25
48862;BME280;34681;49.188;-0.374;2022-11-13T08:20:02;101751.53;;;11.93;80.70
48862;BME280;34681;49.188;-0.374;2022-11-13T08:22:29;101749.28;;;12.19;79.74
48862;BME280;34681;49.188;-0.374;2022-11-13T08:24:54;101759.97;;;12.64;77.91
48862;BME280;34681;49.188;-0.374;2022-11-13T08:27:20;101762.63;;;12.45;78.16
48862;BME280;34681;49.188;-0.374;2022-11-13T08:29:46;101760.25;;;12.40;77.90
48862;BME280;34681;49.188;-0.374;2022-11-13T08:32:16;101760.91;;;11.79;80.30
48862;BME280;34681;49.188;-0.374;2022-11-13T08:34:41;101758.56;;;11.64;81.38
48862;BME280;34681;49.188;-0.374;2022-11-13T08:37:07;101756.38;;;11.46;81.81
48862;BME280;34681;49.188;-0.374;2022-11-13T08:39:32;101753.38;;;11.61;82.49
48862;BME280;34681;49.188;-0.374;2022-11-13T08:42:02;101757.75;;;11.52;82.28
48862;BME280;34681;49.188;-0.374;2022-11-13T08:44:28;101756.19;;;11.70;81.75
48862;BME280;34681;49.188;-0.374;2022-11-13T08:46:54;101741.69;;;11.47;83.17
48862;BME280;34681;49.188;-0.374;2022-11-13T08:49:19;101751.34;;;11.63;83.60
48862;BME280;34681;49.188;-0.374;2022-11-13T08:51:44;101757.41;;;11.89;82.62
48862;BME280;34681;49.188;-0.374;2022-11-13T08:54:10;101742.75;;;11.99;81.91
48862;BME280;34681;49.188;-0.374;2022-11-13T08:56:36;101755.72;;;12.08;81.67
48862;BME280;34681;49.188;-0.374;2022-11-13T08:59:01;101751.50;;;12.25;81.73
48862;BME280;34681;49.188;-0.374;2022-11-13T09:01:27;101759.00;;;12.44;80.84
48862;BME280;34681;49.188;-0.374;2022-11-13T09:03:52;101766.16;;;12.35;81.65
48862;BME280;34681;49.188;-0.374;2022-11-13T09:06:18;101772.78;;;12.75;80.30
48862;BME280;34681;49.188;-0.374;2022-11-13T09:08:43;101767.91;;;12.88;80.25
48862;BME280;34681;49.188;-0.374;2022-11-13T09:11:08;101760.38;;;13.11;80.00
48862;BME280;34681;49.188;-0.374;2022-11-13T09:13:34;101763.56;;;13.16;79.74
48862;BME280;34681;49.188;-0.374;2022-11-13T09:16:01;101758.41;;;13.23;79.59
48862;BME280;34681;49.188;-0.374;2022-11-13T09:18:27;101758.91;;;13.47;78.54
48862;BME280;34681;49.188;-0.374;2022-11-13T09:20:54;101746.91;;;13.48;78.71
48862;BME280;34681;49.188;-0.374;2022-11-13T09:23:19;101752.53;;;13.37;78.88
48862;BME280;34681;49.188;-0.374;2022-11-13T09:25:45;101745.88;;;13.39;78.76
48862;BME280;34681;49.188;-0.374;2022-11-13T09:28:11;101749.69;;;13.67;78.12
48862;BME280;34681;49.188;-0.374;2022-11-13T09:30:38;101755.91;;;13.60;77.72
48862;BME280;34681;49.188;-0.374;2022-11-13T09:33:10;101760.72;;;13.77;77.55
48862;BME280;34681;49.188;-0.374;2022-11-13T09:35:40;101765.19;;;13.88;77.21
48862;BME280;34681;49.188;-0.374;2022-11-13T09:38:22;101758.56;;;13.90;77.08
48862;BME280;34681;49.188;-0.374;2022-11-13T09:40:53;101755.22;;;13.77;77.51
48862;BME280;34681;49.188;-0.374;2022-11-13T09:43:43;101752.59;;;13.75;77.37
48862;BME280;34681;49.188;-0.374;2022-11-13T09:46:39;101755.66;;;14.01;76.57
48862;BME280;34681;49.188;-0.374;2022-11-13T09:49:28;101767.38;;;14.03;76.98
48862;BME280;34681;49.188;-0.374;2022-11-13T09:51:57;101763.47;;;13.96;77.39
48862;BME280;34681;49.188;-0.374;2022-11-13T09:54:23;101760.84;;;14.14;77.38
48862;BME280;34681;49.188;-0.374;2022-11-13T09:57:02;101766.66;;;14.11;77.10
48862;BME280;34681;49.188;-0.374;2022-11-13T09:59:40;101767.25;;;14.24;77.06
48862;BME280;34681;49.188;-0.374;2022-11-13T10:05:33;101760.16;;;14.31;77.00
48862;BME280;34681;49.188;-0.374;2022-11-13T10:08:17;101763.31;;;14.46;76.81
48862;BME280;34681;49.188;-0.374;2022-11-13T10:13:46;101749.00;;;14.23;77.19
48862;BME280;34681;49.188;-0.374;2022-11-13T10:16:19;101743.47;;;14.14;76.91
48862;BME280;34681;49.188;-0.374;2022-11-13T10:18:51;101733.03;;;13.98;77.86
48862;BME280;34681;49.188;-0.374;2022-11-13T10:21:47;101740.00;;;14.41;76.44
48862;BME280;34681;49.188;-0.374;2022-11-13T10:24:22;101736.81;;;14.45;76.48
48862;BME280;34681;49.188;-0.374;2022-11-13T10:26:49;101733.91;;;14.47;76.48
48862;BME280;34681;49.188;-0.374;2022-11-13T10:29:17;101734.94;;;14.26;76.50
48862;BME280;34681;49.188;-0.374;2022-11-13T10:31:47;101725.66;;;13.89;77.99
48862;BME280;34681;49.188;-0.374;2022-11-13T10:34:14;101723.47;;;13.73;78.66
48862;BME280;34681;49.188;-0.374;2022-11-13T10:37:38;101711.34;;;13.95;78.26
48862;BME280;34681;49.188;-0.374;2022-11-13T10:39:44;101706.72;;;13.86;78.31
48862;BME280;34681;49.188;-0.374;2022-11-13T10:42:21;101706.56;;;13.87;78.72
48862;BME280;34681;49.188;-0.374;2022-11-13T10:44:58;101697.84;;;14.11;78.22
48862;BME280;34681;49.188;-0.374;2022-11-13T10:47:29;101698.97;;;14.38;77.89
48862;BME280;34681;49.188;-0.374;2022-11-13T10:49:55;101686.06;;;14.57;77.41
48862;BME280;34681;49.188;-0.374;2022-11-13T10:52:23;101680.03;;;14.72;77.01
48862;BME280;34681;49.188;-0.374;2022-11-13T10:54:49;101676.63;;;14.60;77.18
48862;BME280;34681;49.188;-0.374;2022-11-13T10:57:28;101658.88;;;14.72;76.83
48862;BME280;34681;49.188;-0.374;2022-11-13T10:59:54;101661.44;;;14.46;77.68
48862;BME280;34681;49.188;-0.374;2022-11-13T11:02:24;101658.00;;;14.72;76.87
48862;BME280;34681;49.188;-0.374;2022-11-13T11:05:12;101659.47;;;14.76;76.94
48862;BME280;34681;49.188;-0.374;2022-11-13T11:07:40;101645.72;;;14.66;77.46
48862;BME280;34681;49.188;-0.374;2022-11-13T11:13:01;101638.78;;;14.62;78.18
48862;BME280;34681;49.188;-0.374;2022-11-13T11:15:50;101642.06;;;14.75;77.52
48862;BME280;34681;49.188;-0.374;2022-11-13T11:18:28;101625.47;;;14.85;77.21
48862;BME280;34681;49.188;-0.374;2022-11-13T11:20:59;101629.38;;;15.10;76.93
48862;BME280;34681;49.188;-0.374;2022-11-13T11:23:40;101617.91;;;15.14;76.50
48862;BME280;34681;49.188;-0.374;2022-11-13T11:26:12;101617.91;;;15.14;76.38
48862;BME280;34681;49.188;-0.374;2022-11-13T11:28:46;101615.38;;;15.39;75.95
48862;BME280;34681;49.188;-0.374;2022-11-13T11:31:24;101612.47;;;15.58;75.01
48862;BME280;34681;49.188;-0.374;2022-11-13T11:34:01;101618.13;;;15.66;75.42
48862;BME280;34681;49.188;-0.374;2022-11-13T11:36:32;101603.50;;;15.56;75.80
48862;BME280;34681;49.188;-0.374;2022-11-13T11:39:19;101601.75;;;15.37;76.33
48862;BME280;34681;49.188;-0.374;2022-11-13T11:42:18;101594.13;;;15.49;75.72
48862;BME280;34681;49.188;-0.374;2022-11-13T11:47:32;101607.94;;;15.67;75.27
48862;BME280;34681;49.188;-0.374;2022-11-13T11:49:58;101584.38;;;15.72;74.95
48862;BME280;34681;49.188;-0.374;2022-11-13T12:00:31;101566.47;;;16.02;73.67
48862;BME280;34681;49.188;-0.374;2022-11-13T12:06:01;101560.41;;;15.99;73.76
48862;BME280;34681;49.188;-0.374;2022-11-13T12:08:46;101565.66;;;16.10;72.63
48862;BME280;34681;49.188;-0.374;2022-11-13T12:11:25;101553.28;;;16.14;72.37
48862;BME280;34681;49.188;-0.374;2022-11-13T12:14:30;101550.09;;;16.35;71.86
48862;BME280;34681;49.188;-0.374;2022-11-13T12:20:05;101530.28;;;16.40;70.83
48862;BME280;34681;49.188;-0.374;2022-11-13T12:25:16;101523.38;;;16.44;70.21
48862;BME280;34681;49.188;-0.374;2022-11-13T12:30:26;101525.06;;;16.71;70.84
48862;BME280;34681;49.188;-0.374;2022-11-13T12:33:31;101520.03;;;16.66;70.45
48862;BME280;34681;49.188;-0.374;2022-11-13T12:36:02;101511.56;;;16.68;70.49
48862;BME280;34681;49.188;-0.374;2022-11-13T12:46:15;101495.59;;;17.04;70.08
48862;BME280;34681;49.188;-0.374;2022-11-13T12:48:43;101484.88;;;17.01;70.00
48862;BME280;34681;49.188;-0.374;2022-11-13T12:51:11;101491.13;;;17.27;69.37
48862;BME280;34681;49.188;-0.374;2022-11-13T13:01:55;101486.31;;;17.21;69.64
48862;BME280;34681;49.188;-0.374;2022-11-13T13:10:33;101482.13;;;17.17;69.73
48862;BME280;34681;49.188;-0.374;2022-11-13T13:15:45;101475.06;;;17.06;70.55
48862;BME280;34681;49.188;-0.374;2022-11-13T13:23:30;101459.78;;;16.78;71.67
48862;BME280;34681;49.188;-0.374;2022-11-13T13:28:31;101449.59;;;16.70;71.91
48862;BME280;34681;49.188;-0.374;2022-11-13T13:39:55;101441.00;;;17.06;71.14
48862;BME280;34681;49.188;-0.374;2022-11-13T13:48:14;101433.41;;;17.24;70.60
48862;BME280;34681;49.188;-0.374;2022-11-13T13:50:44;101431.84;;;17.22;70.78
48862;BME280;34681;49.188;-0.374;2022-11-13T13:53:14;101436.00;;;17.09;71.15
48862;BME280;34681;49.188;-0.374;2022-11-13T13:55:47;101424.06;;;17.33;70.40
48862;BME280;34681;49.188;-0.374;2022-11-13T13:58:18;101429.59;;;17.33;70.02
48862;BME280;34681;49.188;-0.374;2022-11-13T14:00:57;101419.75;;;17.23;70.48
48862;BME280;34681;49.188;-0.374;2022-11-13T14:03:24;101423.88;;;17.19;70.77
48862;BME280;34681;49.188;-0.374;2022-11-13T14:05:50;101416.81;;;17.24;70.71
48862;BME280;34681;49.188;-0.374;2022-11-13T14:08:20;101416.81;;;17.24;70.58
48862;BME280;34681;49.188;-0.374;2022-11-13T14:10:46;101419.56;;;17.40;70.21
48862;BME280;34681;49.188;-0.374;2022-11-13T14:13:13;101414.53;;;17.36;70.58